sensor_id;sensor_type;location;lat;lon;timestamp;temperature;humidity
15359;DHT22;7779;49.596;11.070;2023-03-23T00:01:27;11.20;63.40
15359;DHT22;7779;49.596;11.070;2023-03-23T00:03:57;11.10;63.20
15359;DHT22;7779;49.596;11.070;2023-03-23T00:06:27;11.10;63.40
15359;DHT22;7779;49.596;11.070;2023-03-23T00:08:58;11.10;63.50
15359;DHT22;7779;49.596;11.070;2023-03-23T00:11:27;11.10;63.50
15359;DHT22;7779;49.596;11.070;2023-03-23T00:13:56;11.10;63.60
15359;DHT22;7779;49.596;11.070;2023-03-23T00:16:25;11.10;63.60
15359;DHT22;7779;49.596;11.070;2023-03-23T00:19:18;11.10;63.80
15359;DHT22;7779;49.596;11.070;2023-03-23T00:21:46;11.10;63.80
15359;DHT22;7779;49.596;11.070;2023-03-23T00:24:17;11.10;63.80
15359;DHT22;7779;49.596;11.070;2023-03-23T00:26:48;11.10;64.10
15359;DHT22;7779;49.596;11.070;2023-03-23T00:29:15;11.00;64.00
15359;DHT22;7779;49.596;11.070;2023-03-23T00:31:45;11.00;64.00
15359;DHT22;7779;49.596;11.070;2023-03-23T00:34:23;11.00;64.00
15359;DHT22;7779;49.596;11.070;2023-03-23T00:36:52;11.00;64.30
15359;DHT22;7779;49.596;11.070;2023-03-23T00:39:23;11.00;64.20
15359;DHT22;7779;49.596;11.070;2023-03-23T00:41:53;11.00;64.30
15359;DHT22;7779;49.596;11.070;2023-03-23T00:44:30;11.00;64.30
15359;DHT22;7779;49.596;11.070;2023-03-23T00:46:57;11.10;64.60
15359;DHT22;7779;49.596;11.070;2023-03-23T00:49:25;11.10;64.50
15359;DHT22;7779;49.596;11.070;2023-03-23T00:51:53;11.20;64.60
15359;DHT22;7779;49.596;11.070;2023-03-23T00:54:21;11.20;64.60
15359;DHT22;7779;49.596;11.070;2023-03-23T00:56:49;11.30;64.70
15359;DHT22;7779;49.596;11.070;2023-03-23T00:59:16;11.30;64.60
15359;DHT22;7779;49.596;11.070;2023-03-23T01:01:43;11.40;64.70
15359;DHT22;7779;49.596;11.070;2023-03-23T01:04:09;11.40;64.60
15359;DHT22;7779;49.596;11.070;2023-03-23T01:06:39;11.50;64.60
15359;DHT22;7779;49.596;11.070;2023-03-23T01:09:07;11.50;64.50
15359;DHT22;7779;49.596;11.070;2023-03-23T01:11:34;11.60;64.50
15359;DHT22;7779;49.596;11.070;2023-03-23T01:14:00;11.60;64.50
15359;DHT22;7779;49.596;11.070;2023-03-23T01:16:27;11.60;64.50
15359;DHT22;7779;49.596;11.070;2023-03-23T01:18:53;11.70;64.50
15359;DHT22;7779;49.596;11.070;2023-03-23T01:21:20;11.70;64.40
15359;DHT22;7779;49.596;11.070;2023-03-23T01:23:47;11.70;64.40
15359;DHT22;7779;49.596;11.070;2023-03-23T01:26:15;11.80;64.50
15359;DHT22;7779;49.596;11.070;2023-03-23T01:28:45;11.80;64.50
15359;DHT22;7779;49.596;11.070;2023-03-23T01:31:14;11.80;64.40
15359;DHT22;7779;49.596;11.070;2023-03-23T01:33:43;11.90;64.50
15359;DHT22;7779;49.596;11.070;2023-03-23T01:36:15;11.90;64.40
15359;DHT22;7779;49.596;11.070;2023-03-23T01:38:44;11.90;64.40
15359;DHT22;7779;49.596;11.070;2023-03-23T01:41:16;12.00;64.40
15359;DHT22;7779;49.596;11.070;2023-03-23T01:46:26;12.00;64.10
15359;DHT22;7779;49.596;11.070;2023-03-23T01:48:53;12.10;64.10
15359;DHT22;7779;49.596;11.070;2023-03-23T01:51:21;12.10;64.10
15359;DHT22;7779;49.596;11.070;2023-03-23T01:53:56;12.10;64.10
15359;DHT22;7779;49.596;11.070;2023-03-23T01:56:27;12.10;64.00
15359;DHT22;7779;49.596;11.070;2023-03-23T01:58:58;12.20;64.00
15359;DHT22;7779;49.596;11.070;2023-03-23T02:01:25;12.20;64.00
15359;DHT22;7779;49.596;11.070;2023-03-23T02:03:54;12.20;63.90
15359;DHT22;7779;49.596;11.070;2023-03-23T02:06:21;12.30;63.90
15359;DHT22;7779;49.596;11.070;2023-03-23T02:09:22;12.30;63.90
15359;DHT22;7779;49.596;11.070;2023-03-23T02:11:51;12.30;63.80
15359;DHT22;7779;49.596;11.070;2023-03-23T02:14:18;12.40;63.80
15359;DHT22;7779;49.596;11.070;2023-03-23T02:19:41;12.40;63.60
15359;DHT22;7779;49.596;11.070;2023-03-23T02:28:08;12.40;63.40
15359;DHT22;7779;49.596;11.070;2023-03-23T02:36:19;12.50;63.50
15359;DHT22;7779;49.596;11.070;2023-03-23T02:39:23;12.50;63.40
15359;DHT22;7779;49.596;11.070;2023-03-23T02:41:59;12.50;63.40
15359;DHT22;7779;49.596;11.070;2023-03-23T02:44:31;12.50;63.40
15359;DHT22;7779;49.596;11.070;2023-03-23T02:47:00;12.60;63.50
15359;DHT22;7779;49.596;11.070;2023-03-23T02:49:32;12.60;63.40
15359;DHT22;7779;49.596;11.070;2023-03-23T02:52:04;12.60;63.30
15359;DHT22;7779;49.596;11.070;2023-03-23T02:54:35;12.60;63.30
15359;DHT22;7779;49.596;11.070;2023-03-23T02:57:02;12.60;63.30
15359;DHT22;7779;49.596;11.070;2023-03-23T02:59:30;12.70;63.30
15359;DHT22;7779;49.596;11.070;2023-03-23T03:02:05;12.70;63.20
15359;DHT22;7779;49.596;11.070;2023-03-23T03:04:36;12.70;63.00
15359;DHT22;7779;49.596;11.070;2023-03-23T03:08:04;12.70;63.10
15359;DHT22;7779;49.596;11.070;2023-03-23T03:10:52;12.70;62.80
15359;DHT22;7779;49.596;11.070;2023-03-23T03:13:25;12.80;63.10
15359;DHT22;7779;49.596;11.070;2023-03-23T03:19:23;12.80;62.50
15359;DHT22;7779;49.596;11.070;2023-03-23T03:21:54;12.80;62.90
15359;DHT22;7779;49.596;11.070;2023-03-23T03:24:32;12.80;62.80
15359;DHT22;7779;49.596;11.070;2023-03-23T03:27:00;12.90;62.80
15359;DHT22;7779;49.596;11.070;2023-03-23T03:29:37;12.90;62.70
15359;DHT22;7779;49.596;11.070;2023-03-23T03:32:10;12.90;62.60
15359;DHT22;7779;49.596;11.070;2023-03-23T03:34:40;12.90;62.60
15359;DHT22;7779;49.596;11.070;2023-03-23T03:37:07;12.90;62.60
15359;DHT22;7779;49.596;11.070;2023-03-23T03:39:37;12.90;62.40
15359;DHT22;7779;49.596;11.070;2023-03-23T03:42:04;13.00;62.30
15359;DHT22;7779;49.596;11.070;2023-03-23T03:44:32;13.00;62.30
15359;DHT22;7779;49.596;11.070;2023-03-23T03:46:58;13.00;62.30
15359;DHT22;7779;49.596;11.070;2023-03-23T03:49:24;13.00;62.20
15359;DHT22;7779;49.596;11.070;2023-03-23T03:51:52;13.10;62.20
15359;DHT22;7779;49.596;11.070;2023-03-23T03:54:23;13.10;62.10
15359;DHT22;7779;49.596;11.070;2023-03-23T03:56:49;13.10;62.10
15359;DHT22;7779;49.596;11.070;2023-03-23T03:59:49;13.10;62.00
15359;DHT22;7779;49.596;11.070;2023-03-23T04:02:18;13.20;62.00
15359;DHT22;7779;49.596;11.070;2023-03-23T04:04:47;13.20;61.90
15359;DHT22;7779;49.596;11.070;2023-03-23T04:07:13;13.20;61.80
15359;DHT22;7779;49.596;11.070;2023-03-23T04:09:45;13.20;61.70
15359;DHT22;7779;49.596;11.070;2023-03-23T04:12:14;13.20;61.60
15359;DHT22;7779;49.596;11.070;2023-03-23T04:14:55;13.30;61.60
15359;DHT22;7779;49.596;11.070;2023-03-23T04:17:25;13.30;61.50
15359;DHT22;7779;49.596;11.070;2023-03-23T04:19:53;13.30;61.40
15359;DHT22;7779;49.596;11.070;2023-03-23T04:22:26;13.30;61.30
15359;DHT22;7779;49.596;11.070;2023-03-23T04:24:58;13.40;61.10
15359;DHT22;7779;49.596;11.070;2023-03-23T04:27:27;13.40;61.20
15359;DHT22;7779;49.596;11.070;2023-03-23T04:29:56;13.40;61.10
15359;DHT22;7779;49.596;11.070;2023-03-23T04:32:50;13.40;61.00
15359;DHT22;7779;49.596;11.070;2023-03-23T04:35:23;13.40;60.90
15359;DHT22;7779;49.596;11.070;2023-03-23T04:38:01;13.50;61.00
15359;DHT22;7779;49.596;11.070;2023-03-23T04:40:27;13.50;60.90
15359;DHT22;7779;49.596;11.070;2023-03-23T04:43:11;13.50;60.80
15359;DHT22;7779;49.596;11.070;2023-03-23T04:46:13;13.50;60.80
15359;DHT22;7779;49.596;11.070;2023-03-23T04:48:43;13.50;60.70
15359;DHT22;7779;49.596;11.070;2023-03-23T04:51:16;13.50;60.60
15359;DHT22;7779;49.596;11.070;2023-03-23T04:53:45;13.50;59.00
15359;DHT22;7779;49.596;11.070;2023-03-23T04:56:11;13.60;60.50
15359;DHT22;7779;49.596;11.070;2023-03-23T04:58:42;13.60;60.50
15359;DHT22;7779;49.596;11.070;2023-03-23T05:01:32;13.60;60.40
15359;DHT22;7779;49.596;11.070;2023-03-23T05:04:25;13.60;60.30
15359;DHT22;7779;49.596;11.070;2023-03-23T05:07:17;13.60;60.30
15359;DHT22;7779;49.596;11.070;2023-03-23T05:09:49;13.60;60.30
15359;DHT22;7779;49.596;11.070;2023-03-23T05:12:19;13.60;60.10
15359;DHT22;7779;49.596;11.070;2023-03-23T05:14:52;13.60;60.10
15359;DHT22;7779;49.596;11.070;2023-03-23T05:17:20;13.60;60.10
15359;DHT22;7779;49.596;11.070;2023-03-23T05:19:51;13.60;60.00
15359;DHT22;7779;49.596;11.070;2023-03-23T05:22:50;13.60;60.00
15359;DHT22;7779;49.596;11.070;2023-03-23T05:25:26;13.70;60.10
15359;DHT22;7779;49.596;11.070;2023-03-23T05:27:58;13.70;60.10
15359;DHT22;7779;49.596;11.070;2023-03-23T05:30:39;13.70;60.00
15359;DHT22;7779;49.596;11.070;2023-03-23T05:33:07;13.70;58.80
15359;DHT22;7779;49.596;11.070;2023-03-23T05:35:51;13.70;60.00
15359;DHT22;7779;49.596;11.070;2023-03-23T05:38:26;13.70;60.00
15359;DHT22;7779;49.596;11.070;2023-03-23T05:40:53;13.70;60.10
15359;DHT22;7779;49.596;11.070;2023-03-23T05:43:25;13.70;60.00
15359;DHT22;7779;49.596;11.070;2023-03-23T05:46:10;13.80;60.00
15359;DHT22;7779;49.596;11.070;2023-03-23T05:48:38;13.80;60.00
15359;DHT22;7779;49.596;11.070;2023-03-23T05:51:08;13.80;59.90
15359;DHT22;7779;49.596;11.070;2023-03-23T05:53:38;13.80;59.90
15359;DHT22;7779;49.596;11.070;2023-03-23T05:56:04;13.80;59.90
15359;DHT22;7779;49.596;11.070;2023-03-23T05:58:50;13.90;60.00
15359;DHT22;7779;49.596;11.070;2023-03-23T06:01:17;13.90;59.90
15359;DHT22;7779;49.596;11.070;2023-03-23T06:03:43;13.90;59.80
15359;DHT22;7779;49.596;11.070;2023-03-23T06:06:17;13.90;59.80
15359;DHT22;7779;49.596;11.070;2023-03-23T06:09:02;14.00;59.90
15359;DHT22;7779;49.596;11.070;2023-03-23T06:11:48;14.00;59.90
15359;DHT22;7779;49.596;11.070;2023-03-23T06:14:32;14.00;58.40
15359;DHT22;7779;49.596;11.070;2023-03-23T06:16:59;14.00;59.90
15359;DHT22;7779;49.596;11.070;2023-03-23T06:19:25;14.10;59.90
15359;DHT22;7779;49.596;11.070;2023-03-23T06:21:58;14.10;59.90
15359;DHT22;7779;49.596;11.070;2023-03-23T06:24:45;14.10;59.80
15359;DHT22;7779;49.596;11.070;2023-03-23T06:27:13;14.20;59.90
15359;DHT22;7779;49.596;11.070;2023-03-23T06:29:42;14.20;59.80
15359;DHT22;7779;49.596;11.070;2023-03-23T06:32:12;14.20;59.80
15359;DHT22;7779;49.596;11.070;2023-03-23T06:34:41;14.30;59.80
15359;DHT22;7779;49.596;11.070;2023-03-23T06:37:18;14.30;59.80
15359;DHT22;7779;49.596;11.070;2023-03-23T06:39:51;14.30;59.80
15359;DHT22;7779;49.596;11.070;2023-03-23T06:42:24;14.40;59.80
15359;DHT22;7779;49.596;11.070;2023-03-23T06:45:06;14.40;59.70
15359;DHT22;7779;49.596;11.070;2023-03-23T06:47:34;14.50;59.80
15359;DHT22;7779;49.596;11.070;2023-03-23T06:50:00;14.50;59.70
15359;DHT22;7779;49.596;11.070;2023-03-23T06:52:27;14.50;59.60
15359;DHT22;7779;49.596;11.070;2023-03-23T06:54:53;14.60;59.60
15359;DHT22;7779;49.596;11.070;2023-03-23T06:57:20;14.60;59.60
15359;DHT22;7779;49.596;11.070;2023-03-23T06:59:48;14.70;59.70
15359;DHT22;7779;49.596;11.070;2023-03-23T07:02:14;14.70;59.60
15359;DHT22;7779;49.596;11.070;2023-03-23T07:04:42;14.80;59.60
15359;DHT22;7779;49.596;11.070;2023-03-23T07:07:20;14.80;59.60
15359;DHT22;7779;49.596;11.070;2023-03-23T07:09:57;14.80;59.60
15359;DHT22;7779;49.596;11.070;2023-03-23T07:12:23;14.90;60.30
15359;DHT22;7779;49.596;11.070;2023-03-23T07:14:51;14.90;59.70
15359;DHT22;7779;49.596;11.070;2023-03-23T07:17:16;14.90;59.60
15359;DHT22;7779;49.596;11.070;2023-03-23T07:20:05;14.90;59.60
15359;DHT22;7779;49.596;11.070;2023-03-23T07:22:33;15.00;59.60
15359;DHT22;7779;49.596;11.070;2023-03-23T07:25:07;15.00;59.60
15359;DHT22;7779;49.596;11.070;2023-03-23T07:27:51;15.00;59.70
15359;DHT22;7779;49.596;11.070;2023-03-23T07:30:17;15.00;59.80
15359;DHT22;7779;49.596;11.070;2023-03-23T07:32:43;15.00;59.90
15359;DHT22;7779;49.596;11.070;2023-03-23T07:35:09;15.10;60.00
15359;DHT22;7779;49.596;11.070;2023-03-23T07:37:58;15.10;60.00
15359;DHT22;7779;49.596;11.070;2023-03-23T07:40:25;15.10;60.10
15359;DHT22;7779;49.596;11.070;2023-03-23T07:42:57;15.20;60.20
15359;DHT22;7779;49.596;11.070;2023-03-23T07:45:31;15.30;60.20
15359;DHT22;7779;49.596;11.070;2023-03-23T07:47:58;15.30;60.40
15359;DHT22;7779;49.596;11.070;2023-03-23T07:50:25;15.40;60.70
15359;DHT22;7779;49.596;11.070;2023-03-23T07:52:57;15.50;60.30
15359;DHT22;7779;49.596;11.070;2023-03-23T07:55:26;15.50;60.90
15359;DHT22;7779;49.596;11.070;2023-03-23T07:58:11;15.50;61.00
15359;DHT22;7779;49.596;11.070;2023-03-23T08:00:42;15.60;61.10
15359;DHT22;7779;49.596;11.070;2023-03-23T08:03:09;15.70;59.90
15359;DHT22;7779;49.596;11.070;2023-03-23T08:05:56;15.70;61.10
15359;DHT22;7779;49.596;11.070;2023-03-23T08:08:46;15.80;61.10
15359;DHT22;7779;49.596;11.070;2023-03-23T08:11:31;15.80;60.90
15359;DHT22;7779;49.596;11.070;2023-03-23T08:14:15;15.90;60.90
15359;DHT22;7779;49.596;11.070;2023-03-23T08:16:58;15.90;60.70
15359;DHT22;7779;49.596;11.070;2023-03-23T08:19:42;15.90;60.60
15359;DHT22;7779;49.596;11.070;2023-03-23T08:22:31;15.90;60.60
15359;DHT22;7779;49.596;11.070;2023-03-23T08:25:24;15.90;60.60
15359;DHT22;7779;49.596;11.070;2023-03-23T08:28:06;15.90;60.60
15359;DHT22;7779;49.596;11.070;2023-03-23T08:30:50;15.90;60.60
15359;DHT22;7779;49.596;11.070;2023-03-23T08:33:48;15.90;60.60
15359;DHT22;7779;49.596;11.070;2023-03-23T08:36:32;15.90;60.70
15359;DHT22;7779;49.596;11.070;2023-03-23T08:39:13;15.80;60.80
15359;DHT22;7779;49.596;11.070;2023-03-23T08:42:12;15.80;60.90
15359;DHT22;7779;49.596;11.070;2023-03-23T08:44:59;15.80;61.20
15359;DHT22;7779;49.596;11.070;2023-03-23T08:47:41;15.80;61.30
15359;DHT22;7779;49.596;11.070;2023-03-23T08:50:16;15.80;61.40
15359;DHT22;7779;49.596;11.070;2023-03-23T08:52:53;15.80;61.50
15359;DHT22;7779;49.596;11.070;2023-03-23T08:55:42;15.80;61.60
15359;DHT22;7779;49.596;11.070;2023-03-23T08:58:37;15.80;62.00
15359;DHT22;7779;49.596;11.070;2023-03-23T09:01:12;15.90;62.20
15359;DHT22;7779;49.596;11.070;2023-03-23T09:03:52;15.90;62.10
15359;DHT22;7779;49.596;11.070;2023-03-23T09:06:38;15.90;62.20
15359;DHT22;7779;49.596;11.070;2023-03-23T09:09:04;15.90;62.30
15359;DHT22;7779;49.596;11.070;2023-03-23T09:11:36;15.90;62.40
15359;DHT22;7779;49.596;11.070;2023-03-23T09:14:03;16.00;62.60
15359;DHT22;7779;49.596;11.070;2023-03-23T09:16:30;16.00;62.60
15359;DHT22;7779;49.596;11.070;2023-03-23T09:18:56;16.00;62.60
15359;DHT22;7779;49.596;11.070;2023-03-23T09:21:25;16.10;62.70
15359;DHT22;7779;49.596;11.070;2023-03-23T09:23:54;16.10;61.50
15359;DHT22;7779;49.596;11.070;2023-03-23T09:26:24;16.20;62.60
15359;DHT22;7779;49.596;11.070;2023-03-23T09:28:51;16.20;62.50
15359;DHT22;7779;49.596;11.070;2023-03-23T09:31:17;16.20;62.50
15359;DHT22;7779;49.596;11.070;2023-03-23T09:33:47;16.30;62.50
15359;DHT22;7779;49.596;11.070;2023-03-23T09:36:18;16.30;62.30
15359;DHT22;7779;49.596;11.070;2023-03-23T09:38:47;16.40;62.40
15359;DHT22;7779;49.596;11.070;2023-03-23T09:50:08;16.80;62.00
15359;DHT22;7779;49.596;11.070;2023-03-23T09:52:48;16.80;61.60
15359;DHT22;7779;49.596;11.070;2023-03-23T09:55:20;17.00;62.00
15359;DHT22;7779;49.596;11.070;2023-03-23T09:57:58;17.10;62.30
15359;DHT22;7779;49.596;11.070;2023-03-23T10:00:35;17.30;61.70
15359;DHT22;7779;49.596;11.070;2023-03-23T10:03:26;17.40;62.00
15359;DHT22;7779;49.596;11.070;2023-03-23T10:06:03;17.50;61.00
15359;DHT22;7779;49.596;11.070;2023-03-23T10:08:32;17.60;61.70
15359;DHT22;7779;49.596;11.070;2023-03-23T10:11:28;17.60;61.10
15359;DHT22;7779;49.596;11.070;2023-03-23T10:19:51;17.70;59.90
15359;DHT22;7779;49.596;11.070;2023-03-23T10:22:32;17.70;60.20
15359;DHT22;7779;49.596;11.070;2023-03-23T10:30:45;17.70;59.10
15359;DHT22;7779;49.596;11.070;2023-03-23T10:33:29;17.60;60.20
15359;DHT22;7779;49.596;11.070;2023-03-23T10:36:23;17.60;59.30
15359;DHT22;7779;49.596;11.070;2023-03-23T10:39:03;17.50;58.90
15359;DHT22;7779;49.596;11.070;2023-03-23T10:41:34;17.50;59.70
15359;DHT22;7779;49.596;11.070;2023-03-23T10:44:01;17.40;59.70
15359;DHT22;7779;49.596;11.070;2023-03-23T10:46:45;17.40;59.70
15359;DHT22;7779;49.596;11.070;2023-03-23T10:49:18;17.40;59.30
15359;DHT22;7779;49.596;11.070;2023-03-23T10:52:13;17.30;59.70
15359;DHT22;7779;49.596;11.070;2023-03-23T10:55:09;17.30;59.80
15359;DHT22;7779;49.596;11.070;2023-03-23T10:57:37;17.30;59.90
15359;DHT22;7779;49.596;11.070;2023-03-23T11:02:41;17.30;60.10
15359;DHT22;7779;49.596;11.070;2023-03-23T11:05:20;17.30;60.10
15359;DHT22;7779;49.596;11.070;2023-03-23T11:07:55;17.30;59.50
15359;DHT22;7779;49.596;11.070;2023-03-23T11:10:25;17.20;59.70
15359;DHT22;7779;49.596;11.070;2023-03-23T11:12:57;17.20;59.90
15359;DHT22;7779;49.596;11.070;2023-03-23T11:15:36;17.20;59.90
15359;DHT22;7779;49.596;11.070;2023-03-23T11:18:10;17.20;59.80
15359;DHT22;7779;49.596;11.070;2023-03-23T11:20:41;17.10;59.80
15359;DHT22;7779;49.596;11.070;2023-03-23T11:23:35;17.10;60.10
15359;DHT22;7779;49.596;11.070;2023-03-23T11:26:38;17.10;59.80
15359;DHT22;7779;49.596;11.070;2023-03-23T11:31:48;17.10;60.40
15359;DHT22;7779;49.596;11.070;2023-03-23T11:34:44;17.10;60.40
15359;DHT22;7779;49.596;11.070;2023-03-23T11:37:29;17.10;59.90
15359;DHT22;7779;49.596;11.070;2023-03-23T11:40:15;17.10;60.00
15359;DHT22;7779;49.596;11.070;2023-03-23T11:42:49;17.10;60.10
15359;DHT22;7779;49.596;11.070;2023-03-23T11:45:37;17.10;60.40
15359;DHT22;7779;49.596;11.070;2023-03-23T11:51:10;17.10;60.70
15359;DHT22;7779;49.596;11.070;2023-03-23T11:56:35;17.20;61.00
15359;DHT22;7779;49.596;11.070;2023-03-23T11:59:09;17.20;61.40
15359;DHT22;7779;49.596;11.070;2023-03-23T12:01:46;17.20;61.60
15359;DHT22;7779;49.596;11.070;2023-03-23T12:04:32;17.30;61.70
15359;DHT22;7779;49.596;11.070;2023-03-23T12:10:01;17.40;62.00
15359;DHT22;7779;49.596;11.070;2023-03-23T12:12:52;17.50;61.70
15359;DHT22;7779;49.596;11.070;2023-03-23T12:28:04;17.80;61.10
15359;DHT22;7779;49.596;11.070;2023-03-23T12:30:47;17.80;60.80
15359;DHT22;7779;49.596;11.070;2023-03-23T12:33:35;17.80;61.40
15359;DHT22;7779;49.596;11.070;2023-03-23T12:36:47;17.90;61.20
15359;DHT22;7779;49.596;11.070;2023-03-23T12:39:45;17.90;61.00
15359;DHT22;7779;49.596;11.070;2023-03-23T12:42:34;17.90;60.90
15359;DHT22;7779;49.596;11.070;2023-03-23T12:45:37;17.90;61.00
15359;DHT22;7779;49.596;11.070;2023-03-23T12:48:32;17.90;61.30
15359;DHT22;7779;49.596;11.070;2023-03-23T12:51:03;17.90;61.00
15359;DHT22;7779;49.596;11.070;2023-03-23T12:54:11;17.90;61.30
15359;DHT22;7779;49.596;11.070;2023-03-23T12:56:53;18.00;60.80
15359;DHT22;7779;49.596;11.070;2023-03-23T12:59:33;18.00;61.00
15359;DHT22;7779;49.596;11.070;2023-03-23T13:04:47;18.10;60.80
15359;DHT22;7779;49.596;11.070;2023-03-23T13:07:27;18.10;61.10
15359;DHT22;7779;49.596;11.070;2023-03-23T13:12:40;18.20;60.50
15359;DHT22;7779;49.596;11.070;2023-03-23T13:15:26;18.20;60.50
15359;DHT22;7779;49.596;11.070;2023-03-23T13:18:08;18.20;60.30
15359;DHT22;7779;49.596;11.070;2023-03-23T13:21:17;18.20;59.90
15359;DHT22;7779;49.596;11.070;2023-03-23T13:24:20;18.10;59.50
15359;DHT22;7779;49.596;11.070;2023-03-23T13:26:50;18.10;59.00
15359;DHT22;7779;49.596;11.070;2023-03-23T13:29:20;18.10;59.80
15359;DHT22;7779;49.596;11.070;2023-03-23T13:31:50;18.00;59.60
15359;DHT22;7779;49.596;11.070;2023-03-23T13:34:19;18.00;59.80
15359;DHT22;7779;49.596;11.070;2023-03-23T13:37:01;18.00;59.80
15359;DHT22;7779;49.596;11.070;2023-03-23T13:39:53;18.00;59.60
15359;DHT22;7779;49.596;11.070;2023-03-23T13:42:24;18.00;60.10
15359;DHT22;7779;49.596;11.070;2023-03-23T13:49:57;18.20;60.10
15359;DHT22;7779;49.596;11.070;2023-03-23T14:05:43;18.60;59.10
15359;DHT22;7779;49.596;11.070;2023-03-23T14:08:23;18.60;59.20
15359;DHT22;7779;49.596;11.070;2023-03-23T14:11:16;18.60;59.20
15359;DHT22;7779;49.596;11.070;2023-03-23T14:14:05;18.70;58.20
15359;DHT22;7779;49.596;11.070;2023-03-23T14:16:39;18.70;58.60
15359;DHT22;7779;49.596;11.070;2023-03-23T14:19:23;18.70;58.80
15359;DHT22;7779;49.596;11.070;2023-03-23T14:21:55;18.80;58.40
15359;DHT22;7779;49.596;11.070;2023-03-23T14:24:28;18.80;58.80
15359;DHT22;7779;49.596;11.070;2023-03-23T14:29:31;18.70;58.00
15359;DHT22;7779;49.596;11.070;2023-03-23T14:31:58;18.70;58.50
15359;DHT22;7779;49.596;11.070;2023-03-23T14:34:27;18.70;58.50
15359;DHT22;7779;49.596;11.070;2023-03-23T14:36:55;18.80;58.60
15359;DHT22;7779;49.596;11.070;2023-03-23T14:39:29;18.80;58.40
15359;DHT22;7779;49.596;11.070;2023-03-23T14:42:03;18.70;58.00
15359;DHT22;7779;49.596;11.070;2023-03-23T14:44:39;18.70;58.00
15359;DHT22;7779;49.596;11.070;2023-03-23T14:47:13;18.70;58.10
15359;DHT22;7779;49.596;11.070;2023-03-23T14:49:45;18.70;58.00
15359;DHT22;7779;49.596;11.070;2023-03-23T14:52:13;18.60;58.00
15359;DHT22;7779;49.596;11.070;2023-03-23T14:54:42;18.60;57.90
15359;DHT22;7779;49.596;11.070;2023-03-23T14:59:55;18.60;57.10
15359;DHT22;7779;49.596;11.070;2023-03-23T15:02:35;18.60;57.90
15359;DHT22;7779;49.596;11.070;2023-03-23T15:05:16;18.50;57.80
15359;DHT22;7779;49.596;11.070;2023-03-23T15:08:07;18.50;58.30
15359;DHT22;7779;49.596;11.070;2023-03-23T15:10:40;18.40;57.80
15359;DHT22;7779;49.596;11.070;2023-03-23T15:13:11;18.40;57.80
15359;DHT22;7779;49.596;11.070;2023-03-23T15:15:38;18.40;57.70
15359;DHT22;7779;49.596;11.070;2023-03-23T15:18:04;18.30;57.80
15359;DHT22;7779;49.596;11.070;2023-03-23T15:20:47;18.20;57.90
15359;DHT22;7779;49.596;11.070;2023-03-23T15:23:22;18.20;57.80
15359;DHT22;7779;49.596;11.070;2023-03-23T15:25:55;18.20;57.70
15359;DHT22;7779;49.596;11.070;2023-03-23T15:28:29;18.20;58.10
15359;DHT22;7779;49.596;11.070;2023-03-23T15:31:00;18.20;57.90
15359;DHT22;7779;49.596;11.070;2023-03-23T15:33:39;18.20;58.20
15359;DHT22;7779;49.596;11.070;2023-03-23T15:36:16;18.20;57.80
15359;DHT22;7779;49.596;11.070;2023-03-23T15:38:44;18.20;57.90
15359;DHT22;7779;49.596;11.070;2023-03-23T15:41:25;18.20;58.30
15359;DHT22;7779;49.596;11.070;2023-03-23T15:43:55;18.20;57.90
15359;DHT22;7779;49.596;11.070;2023-03-23T15:46:28;18.20;58.20
15359;DHT22;7779;49.596;11.070;2023-03-23T15:51:26;18.20;58.10
15359;DHT22;7779;49.596;11.070;2023-03-23T15:53:54;18.20;58.20
15359;DHT22;7779;49.596;11.070;2023-03-23T15:56:21;18.10;58.20
15359;DHT22;7779;49.596;11.070;2023-03-23T15:58:48;18.10;58.30
15359;DHT22;7779;49.596;11.070;2023-03-23T16:01:21;18.10;58.40
15359;DHT22;7779;49.596;11.070;2023-03-23T16:03:53;18.10;58.20
15359;DHT22;7779;49.596;11.070;2023-03-23T16:06:23;18.00;58.30
15359;DHT22;7779;49.596;11.070;2023-03-23T16:08:54;18.00;58.40
15359;DHT22;7779;49.596;11.070;2023-03-23T16:11:20;18.00;58.50
15359;DHT22;7779;49.596;11.070;2023-03-23T16:13:45;18.00;58.40
15359;DHT22;7779;49.596;11.070;2023-03-23T16:16:26;18.00;58.50
15359;DHT22;7779;49.596;11.070;2023-03-23T16:18:54;18.00;58.40
15359;DHT22;7779;49.596;11.070;2023-03-23T16:21:20;17.90;58.50
15359;DHT22;7779;49.596;11.070;2023-03-23T16:23:46;17.90;58.50
15359;DHT22;7779;49.596;11.070;2023-03-23T16:26:13;17.90;58.50
15359;DHT22;7779;49.596;11.070;2023-03-23T16:28:41;17.90;58.60
15359;DHT22;7779;49.596;11.070;2023-03-23T16:31:07;17.80;58.50
15359;DHT22;7779;49.596;11.070;2023-03-23T16:33:33;17.80;58.50
15359;DHT22;7779;49.596;11.070;2023-03-23T16:35:59;17.80;58.50
15359;DHT22;7779;49.596;11.070;2023-03-23T16:38:25;17.70;58.50
15359;DHT22;7779;49.596;11.070;2023-03-23T16:40:51;17.70;58.60
15359;DHT22;7779;49.596;11.070;2023-03-23T16:43:17;17.70;58.60
15359;DHT22;7779;49.596;11.070;2023-03-23T16:45:45;17.60;58.60
15359;DHT22;7779;49.596;11.070;2023-03-23T16:48:15;17.60;58.60
15359;DHT22;7779;49.596;11.070;2023-03-23T16:50:43;17.60;58.70
15359;DHT22;7779;49.596;11.070;2023-03-23T16:53:09;17.50;58.70
15359;DHT22;7779;49.596;11.070;2023-03-23T16:55:36;17.50;58.80
15359;DHT22;7779;49.596;11.070;2023-03-23T16:58:03;17.50;58.80
15359;DHT22;7779;49.596;11.070;2023-03-23T17:00:29;17.40;58.80
15359;DHT22;7779;49.596;11.070;2023-03-23T17:02:56;17.40;58.90
15359;DHT22;7779;49.596;11.070;2023-03-23T17:05:27;17.40;59.00
15359;DHT22;7779;49.596;11.070;2023-03-23T17:07:54;17.30;58.90
15359;DHT22;7779;49.596;11.070;2023-03-23T17:10:21;17.30;59.00
15359;DHT22;7779;49.596;11.070;2023-03-23T17:12:49;17.20;59.00
15359;DHT22;7779;49.596;11.070;2023-03-23T17:15:14;17.20;59.10
15359;DHT22;7779;49.596;11.070;2023-03-23T17:17:41;17.20;59.10
15359;DHT22;7779;49.596;11.070;2023-03-23T17:20:07;17.20;59.30
15359;DHT22;7779;49.596;11.070;2023-03-23T17:22:34;17.10;59.20
15359;DHT22;7779;49.596;11.070;2023-03-23T17:25:02;17.10;59.30
15359;DHT22;7779;49.596;11.070;2023-03-23T17:27:30;17.00;59.20
15359;DHT22;7779;49.596;11.070;2023-03-23T17:29:56;17.00;59.40
15359;DHT22;7779;49.596;11.070;2023-03-23T17:32:22;16.90;59.30
15359;DHT22;7779;49.596;11.070;2023-03-23T17:34:49;16.90;59.40
15359;DHT22;7779;49.596;11.070;2023-03-23T17:37:15;16.90;59.50
15359;DHT22;7779;49.596;11.070;2023-03-23T17:39:41;16.80;59.50
15359;DHT22;7779;49.596;11.070;2023-03-23T17:42:07;16.80;59.60
15359;DHT22;7779;49.596;11.070;2023-03-23T17:44:33;16.70;59.60
15359;DHT22;7779;49.596;11.070;2023-03-23T17:46:59;16.70;59.70
15359;DHT22;7779;49.596;11.070;2023-03-23T17:49:25;16.70;59.80
15359;DHT22;7779;49.596;11.070;2023-03-23T17:51:51;16.60;60.50
15359;DHT22;7779;49.596;11.070;2023-03-23T17:54:17;16.60;59.90